sensor_id;sensor_type;location;lat;lon;timestamp;pressure;altitude;pressure_sealevel;temperature;humidity
34482;BME280;20720;48.886;9.388;2023-12-20T00:00:03;98423.81;;;10.22;100.00
34482;BME280;20720;48.886;9.388;2023-12-20T00:02:28;98417.34;;;10.18;100.00
34482;BME280;20720;48.886;9.388;2023-12-20T00:04:53;98410.44;;;10.10;100.00
34482;BME280;20720;48.886;9.388;2023-12-20T00:07:18;98418.81;;;10.33;100.00
34482;BME280;20720;48.886;9.388;2023-12-20T00:09:44;98415.38;;;9.99;100.00
34482;BME280;20720;48.886;9.388;2023-12-20T00:12:09;98421.34;;;9.31;100.00
34482;BME280;20720;48.886;9.388;2023-12-20T00:14:34;98407.72;;;10.04;100.00
34482;BME280;20720;48.886;9.388;2023-12-20T00:17:00;98406.91;;;10.03;100.00
34482;BME280;20720;48.886;9.388;2023-12-20T00:19:25;98410.13;;;9.71;100.00
34482;BME280;20720;48.886;9.388;2023-12-20T00:21:50;98403.31;;;10.04;100.00
34482;BME280;20720;48.886;9.388;2023-12-20T00:24:15;98396.41;;;9.69;100.00
34482;BME280;20720;48.886;9.388;2023-12-20T00:26:41;98396.63;;;9.19;100.00
34482;BME280;20720;48.886;9.388;2023-12-20T00:29:06;98395.59;;;9.41;100.00
34482;BME280;20720;48.886;9.388;2023-12-20T00:31:32;98392.09;;;9.55;100.00
34482;BME280;20720;48.886;9.388;2023-12-20T00:33:57;98380.91;;;9.74;100.00
34482;BME280;20720;48.886;9.388;2023-12-20T00:36:22;98380.03;;;9.67;100.00
34482;BME280;20720;48.886;9.388;2023-12-20T00:38:47;98385.50;;;10.00;100.00
34482;BME280;20720;48.886;9.388;2023-12-20T00:41:13;98390.91;;;10.80;100.00
34482;BME280;20720;48.886;9.388;2023-12-20T00:43:38;98386.59;;;10.59;100.00
34482;BME280;20720;48.886;9.388;2023-12-20T00:46:03;98379.34;;;10.68;100.00
34482;BME280;20720;48.886;9.388;2023-12-20T00:48:29;98387.34;;;10.47;100.00
34482;BME280;20720;48.886;9.388;2023-12-20T00:50:56;98378.56;;;10.74;100.00
34482;BME280;20720;48.886;9.388;2023-12-20T00:53:21;98364.13;;;9.41;100.00
34482;BME280;20720;48.886;9.388;2023-12-20T00:55:47;98371.34;;;10.28;100.00
34482;BME280;20720;48.886;9.388;2023-12-20T00:58:12;98357.66;;;10.05;100.00
34482;BME280;20720;48.886;9.388;2023-12-20T01:00:37;98382.94;;;9.79;100.00
34482;BME280;20720;48.886;9.388;2023-12-20T01:03:03;98385.09;;;9.96;100.00
34482;BME280;20720;48.886;9.388;2023-12-20T01:05:28;98363.63;;;8.82;100.00
34482;BME280;20720;48.886;9.388;2023-12-20T01:07:53;98380.03;;;9.67;100.00
34482;BME280;20720;48.886;9.388;2023-12-20T01:10:19;98356.19;;;8.86;100.00
34482;BME280;20720;48.886;9.388;2023-12-20T01:12:44;98354.03;;;9.38;100.00
34482;BME280;20720;48.886;9.388;2023-12-20T01:15:10;98362.16;;;9.77;100.00
34482;BME280;20720;48.886;9.388;2023-12-20T01:17:35;98352.94;;;9.54;100.00
34482;BME280;20720;48.886;9.388;2023-12-20T01:20:01;98361.44;;;9.56;100.00
34482;BME280;20720;48.886;9.388;2023-12-20T01:22:26;98368.16;;;10.05;100.00
34482;BME280;20720;48.886;9.388;2023-12-20T01:24:51;98371.91;;;10.17;100.00
34482;BME280;20720;48.886;9.388;2023-12-20T01:27:16;98369.59;;;10.08;100.00
34482;BME280;20720;48.886;9.388;2023-12-20T01:29:42;98376.22;;;9.97;100.00
34482;BME280;20720;48.886;9.388;2023-12-20T01:32:07;98373.63;;;9.70;100.00
34482;BME280;20720;48.886;9.388;2023-12-20T01:34:32;98369.88;;;9.85;100.00
34482;BME280;20720;48.886;9.388;2023-12-20T01:36:58;98370.38;;;9.68;100.00
34482;BME280;20720;48.886;9.388;2023-12-20T01:39:23;98381.16;;;9.52;100.00
34482;BME280;20720;48.886;9.388;2023-12-20T01:41:48;98373.88;;;9.47;100.00
34482;BME280;20720;48.886;9.388;2023-12-20T01:44:14;98380.69;;;9.41;100.00
34482;BME280;20720;48.886;9.388;2023-12-20T01:46:39;98371.66;;;9.78;100.00
34482;BME280;20720;48.886;9.388;2023-12-20T01:49:05;98381.06;;;10.00;100.00
34482;BME280;20720;48.886;9.388;2023-12-20T01:51:30;98376.53;;;9.81;100.00
34482;BME280;20720;48.886;9.388;2023-12-20T01:53:57;98375.00;;;9.66;100.00
34482;BME280;20720;48.886;9.388;2023-12-20T01:56:23;98379.84;;;9.96;100.00
34482;BME280;20720;48.886;9.388;2023-12-20T01:58:48;98379.59;;;9.08;100.00
34482;BME280;20720;48.886;9.388;2023-12-20T02:01:14;98364.41;;;9.52;100.00
34482;BME280;20720;48.886;9.388;2023-12-20T02:03:43;98374.09;;;9.52;100.00
34482;BME280;20720;48.886;9.388;2023-12-20T02:06:09;98364.00;;;9.21;100.00
34482;BME280;20720;48.886;9.388;2023-12-20T02:08:35;98351.97;;;8.64;100.00
34482;BME280;20720;48.886;9.388;2023-12-20T02:11:01;98350.06;;;9.21;100.00
34482;BME280;20720;48.886;9.388;2023-12-20T02:13:26;98359.59;;;9.90;100.00
34482;BME280;20720;48.886;9.388;2023-12-20T02:15:52;98364.81;;;10.11;100.00
34482;BME280;20720;48.886;9.388;2023-12-20T02:18:17;98360.09;;;10.07;100.00
34482;BME280;20720;48.886;9.388;2023-12-20T02:20:43;98360.44;;;10.31;100.00
34482;BME280;20720;48.886;9.388;2023-12-20T02:23:08;98362.44;;;10.23;100.00
34482;BME280;20720;48.886;9.388;2023-12-20T02:25:33;98363.00;;;10.18;100.00
34482;BME280;20720;48.886;9.388;2023-12-20T02:27:58;98364.50;;;9.93;100.00
34482;BME280;20720;48.886;9.388;2023-12-20T02:30:24;98363.72;;;10.06;100.00
34482;BME280;20720;48.886;9.388;2023-12-20T02:32:49;98372.56;;;9.98;100.00
34482;BME280;20720;48.886;9.388;2023-12-20T02:35:15;98364.44;;;9.25;100.00
34482;BME280;20720;48.886;9.388;2023-12-20T02:37:40;98362.00;;;9.51;100.00
34482;BME280;20720;48.886;9.388;2023-12-20T02:40:06;98363.94;;;8.94;100.00
34482;BME280;20720;48.886;9.388;2023-12-20T02:42:31;98357.94;;;9.21;100.00
34482;BME280;20720;48.886;9.388;2023-12-20T02:44:57;98361.06;;;9.10;100.00
34482;BME280;20720;48.886;9.388;2023-12-20T02:47:22;98364.03;;;9.28;100.00
34482;BME280;20720;48.886;9.388;2023-12-20T02:49:47;98366.22;;;9.52;100.00
34482;BME280;20720;48.886;9.388;2023-12-20T02:52:12;98370.03;;;9.77;100.00
34482;BME280;20720;48.886;9.388;2023-12-20T02:54:37;98372.16;;;9.61;100.00
34482;BME280;20720;48.886;9.388;2023-12-20T02:57:03;98372.72;;;9.90;100.00
34482;BME280;20720;48.886;9.388;2023-12-20T02:59:29;98367.63;;;9.82;100.00
34482;BME280;20720;48.886;9.388;2023-12-20T03:01:55;98372.97;;;9.95;100.00
34482;BME280;20720;48.886;9.388;2023-12-20T03:04:20;98366.03;;;9.81;100.00
34482;BME280;20720;48.886;9.388;2023-12-20T03:06:45;98369.25;;;9.49;100.00
34482;BME280;20720;48.886;9.388;2023-12-20T03:09:11;98368.91;;;9.31;100.00
34482;BME280;20720;48.886;9.388;2023-12-20T03:11:36;98365.22;;;9.25;100.00
34482;BME280;20720;48.886;9.388;2023-12-20T03:14:01;98371.16;;;8.92;100.00
34482;BME280;20720;48.886;9.388;2023-12-20T03:16:27;98375.59;;;9.61;100.00
34482;BME280;20720;48.886;9.388;2023-12-20T03:18:52;98376.41;;;8.71;100.00
34482;BME280;20720;48.886;9.388;2023-12-20T03:21:17;98359.63;;;8.86;100.00
34482;BME280;20720;48.886;9.388;2023-12-20T03:23:42;98357.31;;;8.98;100.00
34482;BME280;20720;48.886;9.388;2023-12-20T03:26:08;98352.59;;;7.57;100.00
34482;BME280;20720;48.886;9.388;2023-12-20T03:28:34;98357.16;;;8.42;100.00
34482;BME280;20720;48.886;9.388;2023-12-20T03:31:00;98362.22;;;8.80;100.00
34482;BME280;20720;48.886;9.388;2023-12-20T03:33:27;98362.78;;;8.39;100.00
34482;BME280;20720;48.886;9.388;2023-12-20T03:35:52;98349.63;;;8.54;100.00
34482;BME280;20720;48.886;9.388;2023-12-20T03:38:17;98363.41;;;8.41;100.00
34482;BME280;20720;48.886;9.388;2023-12-20T03:40:43;98365.06;;;9.06;100.00
34482;BME280;20720;48.886;9.388;2023-12-20T03:43:08;98360.31;;;8.23;100.00
34482;BME280;20720;48.886;9.388;2023-12-20T03:45:33;98349.22;;;8.72;100.00
34482;BME280;20720;48.886;9.388;2023-12-20T03:47:59;98362.22;;;9.01;100.00
34482;BME280;20720;48.886;9.388;2023-12-20T03:50:24;98364.31;;;8.34;100.00
34482;BME280;20720;48.886;9.388;2023-12-20T03:52:49;98354.69;;;8.34;100.00
34482;BME280;20720;48.886;9.388;2023-12-20T03:55:15;98364.13;;;8.35;100.00
34482;BME280;20720;48.886;9.388;2023-12-20T03:57:40;98357.66;;;8.17;100.00
34482;BME280;20720;48.886;9.388;2023-12-20T04:00:07;98355.16;;;7.94;100.00
34482;BME280;20720;48.886;9.388;2023-12-20T04:02:40;98358.38;;;8.61;100.00
34482;BME280;20720;48.886;9.388;2023-12-20T04:05:06;98358.66;;;8.30;100.00
34482;BME280;20720;48.886;9.388;2023-12-20T04:07:32;98350.16;;;8.28;100.00
34482;BME280;20720;48.886;9.388;2023-12-20T04:09:57;98368.13;;;8.88;100.00
34482;BME280;20720;48.886;9.388;2023-12-20T04:12:22;98375.34;;;8.86;100.00
34482;BME280;20720;48.886;9.388;2023-12-20T04:14:48;98373.00;;;8.34;100.00
34482;BME280;20720;48.886;9.388;2023-12-20T04:17:13;98364.78;;;8.08;100.00
34482;BME280;20720;48.886;9.388;2023-12-20T04:19:40;98355.16;;;8.59;100.00
34482;BME280;20720;48.886;9.388;2023-12-20T04:22:06;98346.66;;;8.57;100.00
34482;BME280;20720;48.886;9.388;2023-12-20T04:24:31;98351.59;;;8.16;100.00
34482;BME280;20720;48.886;9.388;2023-12-20T04:26:56;98371.75;;;8.87;100.00
34482;BME280;20720;48.886;9.388;2023-12-20T04:29:22;98381.66;;;8.92;100.00
34482;BME280;20720;48.886;9.388;2023-12-20T04:31:47;98377.50;;;8.62;100.00
34482;BME280;20720;48.886;9.388;2023-12-20T04:34:12;98378.78;;;8.66;100.00
34482;BME280;20720;48.886;9.388;2023-12-20T04:36:37;98397.91;;;8.30;100.00
34482;BME280;20720;48.886;9.388;2023-12-20T04:39:02;98394.97;;;8.54;100.00
34482;BME280;20720;48.886;9.388;2023-12-20T04:41:28;98380.94;;;7.97;100.00
34482;BME280;20720;48.886;9.388;2023-12-20T04:43:53;98383.03;;;8.67;100.00
34482;BME280;20720;48.886;9.388;2023-12-20T04:46:18;98407.03;;;8.34;100.00
34482;BME280;20720;48.886;9.388;2023-12-20T04:48:44;98397.16;;;8.22;100.00
34482;BME280;20720;48.886;9.388;2023-12-20T04:51:09;98413.97;;;8.42;100.00
34482;BME280;20720;48.886;9.388;2023-12-20T04:53:34;98397.81;;;7.95;100.00
34482;BME280;20720;48.886;9.388;2023-12-20T04:55:59;98401.78;;;8.05;100.00
34482;BME280;20720;48.886;9.388;2023-12-20T04:58:25;98405.16;;;8.64;100.00
34482;BME280;20720;48.886;9.388;2023-12-20T05:00:50;98401.41;;;8.37;100.00
34482;BME280;20720;48.886;9.388;2023-12-20T05:03:15;98394.72;;;7.91;100.00
34482;BME280;20720;48.886;9.388;2023-12-20T05:05:41;98403.31;;;8.43;100.00
34482;BME280;20720;48.886;9.388;2023-12-20T05:08:06;98409.47;;;8.72;100.00
34482;BME280;20720;48.886;9.388;2023-12-20T05:10:31;98411.38;;;8.63;100.00
34482;BME280;20720;48.886;9.388;2023-12-20T05:12:56;98409.81;;;8.47;100.00
34482;BME280;20720;48.886;9.388;2023-12-20T05:15:21;98405.03;;;8.36;100.00
34482;BME280;20720;48.886;9.388;2023-12-20T05:17:47;98415.41;;;8.30;100.00
34482;BME280;20720;48.886;9.388;2023-12-20T05:20:12;98425.41;;;8.41;100.00
34482;BME280;20720;48.886;9.388;2023-12-20T05:22:37;98413.88;;;8.35;100.00
34482;BME280;20720;48.886;9.388;2023-12-20T05:25:03;98420.72;;;9.08;100.00
34482;BME280;20720;48.886;9.388;2023-12-20T05:27:29;98426.78;;;8.08;100.00
34482;BME280;20720;48.886;9.388;2023-12-20T05:29:54;98421.97;;;8.40;100.00
34482;BME280;20720;48.886;9.388;2023-12-20T05:32:22;98425.84;;;8.44;100.00
34482;BME280;20720;48.886;9.388;2023-12-20T05:34:48;98426.50;;;8.32;100.00
34482;BME280;20720;48.886;9.388;2023-12-20T05:37:13;98423.44;;;8.28;100.00
34482;BME280;20720;48.886;9.388;2023-12-20T05:39:38;98422.59;;;7.99;100.00
34482;BME280;20720;48.886;9.388;2023-12-20T05:42:04;98421.28;;;8.17;100.00
34482;BME280;20720;48.886;9.388;2023-12-20T05:44:29;98431.59;;;7.82;100.00
34482;BME280;20720;48.886;9.388;2023-12-20T05:46:54;98433.34;;;8.47;100.00
34482;BME280;20720;48.886;9.388;2023-12-20T05:49:19;98449.41;;;8.59;100.00
34482;BME280;20720;48.886;9.388;2023-12-20T05:51:45;98447.44;;;8.46;100.00
34482;BME280;20720;48.886;9.388;2023-12-20T05:54:10;98448.41;;;8.02;100.00
34482;BME280;20720;48.886;9.388;2023-12-20T05:56:35;98446.59;;;8.61;100.00
34482;BME280;20720;48.886;9.388;2023-12-20T05:59:00;98451.75;;;8.10;100.00
34482;BME280;20720;48.886;9.388;2023-12-20T06:01:26;98457.91;;;8.17;100.00
34482;BME280;20720;48.886;9.388;2023-12-20T06:03:51;98462.97;;;8.33;100.00
34482;BME280;20720;48.886;9.388;2023-12-20T06:06:16;98462.91;;;7.90;100.00
34482;BME280;20720;48.886;9.388;2023-12-20T06:08:43;98462.00;;;7.83;100.00
34482;BME280;20720;48.886;9.388;2023-12-20T06:11:11;98460.97;;;8.35;100.00
34482;BME280;20720;48.886;9.388;2023-12-20T06:13:37;98473.34;;;8.92;100.00
34482;BME280;20720;48.886;9.388;2023-12-20T06:16:04;98478.22;;;8.44;100.00
34482;BME280;20720;48.886;9.388;2023-12-20T06:18:30;98476.81;;;8.78;100.00
34482;BME280;20720;48.886;9.388;2023-12-20T06:20:55;98467.56;;;8.31;100.00
34482;BME280;20720;48.886;9.388;2023-12-20T06:23:20;98468.03;;;8.49;100.00
34482;BME280;20720;48.886;9.388;2023-12-20T06:25:45;98471.28;;;8.51;100.00
34482;BME280;20720;48.886;9.388;2023-12-20T06:28:11;98475.94;;;9.06;100.00
34482;BME280;20720;48.886;9.388;2023-12-20T06:30:39;98477.59;;;8.93;100.00
34482;BME280;20720;48.886;9.388;2023-12-20T06:33:04;98477.72;;;8.85;100.00
34482;BME280;20720;48.886;9.388;2023-12-20T06:35:31;98477.56;;;8.13;100.00
34482;BME280;20720;48.886;9.388;2023-12-20T06:37:56;98475.03;;;8.99;100.00
34482;BME280;20720;48.886;9.388;2023-12-20T06:40:22;98484.81;;;8.40;100.00
34482;BME280;20720;48.886;9.388;2023-12-20T06:42:47;98478.28;;;8.07;100.00
34482;BME280;20720;48.886;9.388;2023-12-20T06:45:12;98470.00;;;8.62;100.00
34482;BME280;20720;48.886;9.388;2023-12-20T06:47:38;98479.28;;;8.21;100.00
34482;BME280;20720;48.886;9.388;2023-12-20T06:50:03;98480.06;;;8.80;100.00
34482;BME280;20720;48.886;9.388;2023-12-20T06:52:29;98496.03;;;8.34;100.00
34482;BME280;20720;48.886;9.388;2023-12-20T06:54:54;98485.16;;;8.52;100.00
34482;BME280;20720;48.886;9.388;2023-12-20T06:57:19;98491.91;;;8.61;100.00
34482;BME280;20720;48.886;9.388;2023-12-20T06:59:45;98492.91;;;8.16;100.00
34482;BME280;20720;48.886;9.388;2023-12-20T07:02:10;98494.66;;;8.53;100.00
34482;BME280;20720;48.886;9.388;2023-12-20T07:04:40;98490.28;;;8.75;100.00
34482;BME280;20720;48.886;9.388;2023-12-20T07:07:05;98499.03;;;8.23;100.00
34482;BME280;20720;48.886;9.388;2023-12-20T07:09:32;98497.34;;;8.74;100.00
34482;BME280;20720;48.886;9.388;2023-12-20T07:11:57;98514.19;;;9.01;100.00
34482;BME280;20720;48.886;9.388;2023-12-20T07:14:23;98516.19;;;8.11;100.00
34482;BME280;20720;48.886;9.388;2023-12-20T07:16:48;98514.22;;;8.42;100.00
34482;BME280;20720;48.886;9.388;2023-12-20T07:19:14;98513.97;;;8.37;100.00
34482;BME280;20720;48.886;9.388;2023-12-20T07:21:39;98510.78;;;8.27;100.00
34482;BME280;20720;48.886;9.388;2023-12-20T07:24:04;98516.56;;;8.81;100.00
34482;BME280;20720;48.886;9.388;2023-12-20T07:26:30;98528.47;;;8.25;100.00
34482;BME280;20720;48.886;9.388;2023-12-20T07:28:55;98521.13;;;8.06;100.00
34482;BME280;20720;48.886;9.388;2023-12-20T07:31:20;98542.19;;;8.27;100.00
34482;BME280;20720;48.886;9.388;2023-12-20T07:33:45;98527.38;;;8.20;100.00
34482;BME280;20720;48.886;9.388;2023-12-20T07:36:12;98538.16;;;8.25;100.00
34482;BME280;20720;48.886;9.388;2023-12-20T07:38:37;98549.38;;;8.63;100.00
34482;BME280;20720;48.886;9.388;2023-12-20T07:41:02;98550.25;;;8.03;100.00
34482;BME280;20720;48.886;9.388;2023-12-20T07:43:28;98546.91;;;8.76;100.00
34482;BME280;20720;48.886;9.388;2023-12-20T07:45:53;98551.47;;;9.03;100.00
34482;BME280;20720;48.886;9.388;2023-12-20T07:48:18;98557.91;;;8.27;100.00
34482;BME280;20720;48.886;9.388;2023-12-20T07:50:43;98572.28;;;8.46;100.00
34482;BME280;20720;48.886;9.388;2023-12-20T07:53:09;98561.25;;;8.65;100.00
34482;BME280;20720;48.886;9.388;2023-12-20T07:55:34;98570.09;;;8.35;100.00
34482;BME280;20720;48.886;9.388;2023-12-20T07:57:59;98565.97;;;8.03;100.00
34482;BME280;20720;48.886;9.388;2023-12-20T08:00:25;98568.84;;;8.08;100.00
34482;BME280;20720;48.886;9.388;2023-12-20T08:02:50;98581.59;;;8.48;100.00
34482;BME280;20720;48.886;9.388;2023-12-20T08:05:15;98583.75;;;8.45;100.00
34482;BME280;20720;48.886;9.388;2023-12-20T08:07:41;98579.84;;;8.41;100.00
34482;BME280;20720;48.886;9.388;2023-12-20T08:10:06;98584.84;;;8.80;100.00
34482;BME280;20720;48.886;9.388;2023-12-20T08:12:31;98583.75;;;8.30;100.00
34482;BME280;20720;48.886;9.388;2023-12-20T08:14:57;98583.84;;;8.66;100.00
34482;BME280;20720;48.886;9.388;2023-12-20T08:17:22;98597.13;;;8.65;100.00
34482;BME280;20720;48.886;9.388;2023-12-20T08:19:48;98594.38;;;7.84;100.00
34482;BME280;20720;48.886;9.388;2023-12-20T08:22:13;98609.09;;;8.07;100.00
34482;BME280;20720;48.886;9.388;2023-12-20T08:24:39;98608.94;;;8.23;100.00
34482;BME280;20720;48.886;9.388;2023-12-20T08:27:04;98617.88;;;8.14;100.00
34482;BME280;20720;48.886;9.388;2023-12-20T08:29:30;98617.41;;;7.88;100.00
34482;BME280;20720;48.886;9.388;2023-12-20T08:31:55;98621.09;;;8.24;100.00
34482;BME280;20720;48.886;9.388;2023-12-20T08:34:21;98627.44;;;8.44;100.00
34482;BME280;20720;48.886;9.388;2023-12-20T08:36:47;98624.44;;;8.10;100.00
34482;BME280;20720;48.886;9.388;2023-12-20T08:39:12;98628.38;;;8.29;100.00
34482;BME280;20720;48.886;9.388;2023-12-20T08:41:37;98635.25;;;8.82;100.00
34482;BME280;20720;48.886;9.388;2023-12-20T08:44:03;98637.00;;;9.75;100.00
34482;BME280;20720;48.886;9.388;2023-12-20T08:46:28;98641.38;;;9.18;100.00
34482;BME280;20720;48.886;9.388;2023-12-20T08:48:54;98654.31;;;9.05;100.00
34482;BME280;20720;48.886;9.388;2023-12-20T08:51:19;98659.75;;;9.68;100.00
34482;BME280;20720;48.886;9.388;2023-12-20T08:53:44;98658.25;;;9.44;100.00
34482;BME280;20720;48.886;9.388;2023-12-20T08:56:11;98649.81;;;9.13;100.00
34482;BME280;20720;48.886;9.388;2023-12-20T08:58:37;98647.84;;;9.51;100.00
34482;BME280;20720;48.886;9.388;2023-12-20T09:01:02;98637.94;;;9.32;100.00
34482;BME280;20720;48.886;9.388;2023-12-20T09:03:27;98647.59;;;9.31;100.00
34482;BME280;20720;48.886;9.388;2023-12-20T09:05:52;98644.00;;;9.68;100.00
34482;BME280;20720;48.886;9.388;2023-12-20T09:08:18;98638.13;;;9.66;100.00
34482;BME280;20720;48.886;9.388;2023-12-20T09:10:43;98638.47;;;9.42;100.00
34482;BME280;20720;48.886;9.388;2023-12-20T09:13:09;98636.63;;;9.57;100.00
34482;BME280;20720;48.886;9.388;2023-12-20T09:15:34;98638.03;;;9.38;100.00
34482;BME280;20720;48.886;9.388;2023-12-20T09:18:00;98642.38;;;9.88;100.00
34482;BME280;20720;48.886;9.388;2023-12-20T09:20:25;98642.91;;;10.40;100.00
34482;BME280;20720;48.886;9.388;2023-12-20T09:22:52;98650.78;;;9.27;100.00
34482;BME280;20720;48.886;9.388;2023-12-20T09:25:18;98636.81;;;9.41;100.00
34482;BME280;20720;48.886;9.388;2023-12-20T09:27:43;98655.38;;;9.75;100.00
34482;BME280;20720;48.886;9.388;2023-12-20T09:30:08;98661.53;;;10.46;100.00
34482;BME280;20720;48.886;9.388;2023-12-20T09:32:34;98667.53;;;9.97;100.00
34482;BME280;20720;48.886;9.388;2023-12-20T09:35:00;98658.75;;;9.90;100.00
34482;BME280;20720;48.886;9.388;2023-12-20T09:37:26;98654.75;;;9.73;100.00
34482;BME280;20720;48.886;9.388;2023-12-20T09:39:52;98658.88;;;10.03;100.00
34482;BME280;20720;48.886;9.388;2023-12-20T09:42:23;98668.50;;;10.32;100.00
34482;BME280;20720;48.886;9.388;2023-12-20T09:44:49;98658.66;;;10.62;100.00
34482;BME280;20720;48.886;9.388;2023-12-20T09:47:15;98665.56;;;10.20;100.00
34482;BME280;20720;48.886;9.388;2023-12-20T09:49:42;98678.06;;;10.18;100.00
34482;BME280;20720;48.886;9.388;2023-12-20T09:52:09;98677.91;;;10.69;100.00
34482;BME280;20720;48.886;9.388;2023-12-20T09:54:36;98681.75;;;11.82;100.00
34482;BME280;20720;48.886;9.388;2023-12-20T09:57:01;98692.81;;;10.62;100.00
34482;BME280;20720;48.886;9.388;2023-12-20T09:59:26;98682.53;;;10.67;100.00
34482;BME280;20720;48.886;9.388;2023-12-20T10:01:55;98689.97;;;11.25;98.83
34482;BME280;20720;48.886;9.388;2023-12-20T10:04:21;98690.25;;;11.43;95.50
34482;BME280;20720;48.886;9.388;2023-12-20T10:06:47;98686.63;;;11.44;95.01
34482;BME280;20720;48.886;9.388;2023-12-20T10:09:13;98695.47;;;11.30;92.74
34482;BME280;20720;48.886;9.388;2023-12-20T10:11:38;98683.69;;;12.20;89.20
34482;BME280;20720;48.886;9.388;2023-12-20T10:14:05;98695.50;;;11.36;88.09
34482;BME280;20720;48.886;9.388;2023-12-20T10:16:32;98692.59;;;11.25;90.65
34482;BME280;20720;48.886;9.388;2023-12-20T10:18:58;98688.19;;;11.32;87.92
34482;BME280;20720;48.886;9.388;2023-12-20T10:21:25;98686.53;;;12.71;85.78
34482;BME280;20720;48.886;9.388;2023-12-20T10:23:52;98689.91;;;11.93;85.46
34482;BME280;20720;48.886;9.388;2023-12-20T10:26:26;98685.03;;;10.75;88.63
34482;BME280;20720;48.886;9.388;2023-12-20T10:28:59;98682.00;;;11.46;88.85
34482;BME280;20720;48.886;9.388;2023-12-20T10:31:32;98682.25;;;10.34;91.05
34482;BME280;20720;48.886;9.388;2023-12-20T10:33:59;98667.50;;;9.76;92.57
34482;BME280;20720;48.886;9.388;2023-12-20T10:36:26;98669.94;;;10.13;94.60
34482;BME280;20720;48.886;9.388;2023-12-20T10:38:52;98672.28;;;10.08;91.96
34482;BME280;20720;48.886;9.388;2023-12-20T10:41:31;98674.56;;;9.76;98.75
34482;BME280;20720;48.886;9.388;2023-12-20T10:43:59;98672.50;;;9.92;95.38
34482;BME280;20720;48.886;9.388;2023-12-20T10:46:26;98668.97;;;9.64;97.27
34482;BME280;20720;48.886;9.388;2023-12-20T10:48:53;98673.25;;;9.65;95.62
34482;BME280;20720;48.886;9.388;2023-12-20T10:51:20;98668.75;;;8.86;99.04
34482;BME280;20720;48.886;9.388;2023-12-20T10:53:47;98669.56;;;9.45;96.04
34482;BME280;20720;48.886;9.388;2023-12-20T10:56:15;98661.50;;;9.46;96.98
34482;BME280;20720;48.886;9.388;2023-12-20T10:58:42;98660.72;;;9.17;95.86
34482;BME280;20720;48.886;9.388;2023-12-20T11:01:13;98651.69;;;8.76;96.58
34482;BME280;20720;48.886;9.388;2023-12-20T11:03:43;98656.75;;;8.92;99.97
34482;BME280;20720;48.886;9.388;2023-12-20T11:08:52;98646.19;;;9.29;98.03
34482;BME280;20720;48.886;9.388;2023-12-20T11:11:33;98646.44;;;9.05;94.25
34482;BME280;20720;48.886;9.388;2023-12-20T11:14:08;98650.44;;;9.15;95.04
34482;BME280;20720;48.886;9.388;2023-12-20T11:16:38;98652.41;;;9.78;91.76
34482;BME280;20720;48.886;9.388;2023-12-20T11:19:05;98651.13;;;9.38;90.79
34482;BME280;20720;48.886;9.388;2023-12-20T11:21:30;98653.47;;;9.48;91.54
34482;BME280;20720;48.886;9.388;2023-12-20T11:23:56;98646.00;;;9.66;90.98
34482;BME280;20720;48.886;9.388;2023-12-20T11:26:27;98639.00;;;9.37;91.46
34482;BME280;20720;48.886;9.388;2023-12-20T11:28:53;98647.75;;;9.44;90.85
34482;BME280;20720;48.886;9.388;2023-12-20T11:31:19;98647.88;;;9.22;89.62
34482;BME280;20720;48.886;9.388;2023-12-20T11:33:44;98640.28;;;9.98;88.74
34482;BME280;20720;48.886;9.388;2023-12-20T11:36:15;98651.09;;;9.53;89.49
34482;BME280;20720;48.886;9.388;2023-12-20T11:38:56;98651.56;;;9.78;88.44
34482;BME280;20720;48.886;9.388;2023-12-20T11:41:23;98661.69;;;9.45;87.61
34482;BME280;20720;48.886;9.388;2023-12-20T11:43:53;98661.81;;;8.93;89.93
34482;BME280;20720;48.886;9.388;2023-12-20T11:46:18;98662.97;;;9.34;92.45
34482;BME280;20720;48.886;9.388;2023-12-20T11:48:44;98656.53;;;9.52;93.05
34482;BME280;20720;48.886;9.388;2023-12-20T11:51:10;98647.78;;;9.80;90.26
34482;BME280;20720;48.886;9.388;2023-12-20T11:53:36;98658.25;;;9.44;91.86
34482;BME280;20720;48.886;9.388;2023-12-20T11:56:03;98658.09;;;9.17;92.05
34482;BME280;20720;48.886;9.388;2023-12-20T11:58:28;98658.25;;;8.57;93.59
34482;BME280;20720;48.886;9.388;2023-12-20T12:00:55;98654.94;;;8.78;93.13
34482;BME280;20720;48.886;9.388;2023-12-20T12:03:20;98655.03;;;9.28;92.37
34482;BME280;20720;48.886;9.388;2023-12-20T12:05:47;98650.34;;;9.09;94.04
34482;BME280;20720;48.886;9.388;2023-12-20T12:08:12;98642.38;;;9.17;93.86
34482;BME280;20720;48.886;9.388;2023-12-20T12:10:38;98641.84;;;8.92;95.15
34482;BME280;20720;48.886;9.388;2023-12-20T12:13:03;98650.72;;;8.91;94.55
34482;BME280;20720;48.886;9.388;2023-12-20T12:15:29;98637.69;;;8.69;98.27
34482;BME280;20720;48.886;9.388;2023-12-20T12:17:55;98635.94;;;9.34;95.13
34482;BME280;20720;48.886;9.388;2023-12-20T12:20:21;98633.31;;;9.70;96.69
34482;BME280;20720;48.886;9.388;2023-12-20T12:22:57;98632.09;;;9.87;93.81
34482;BME280;20720;48.886;9.388;2023-12-20T12:25:22;98625.75;;;8.95;92.83
34482;BME280;20720;48.886;9.388;2023-12-20T12:27:48;98615.97;;;9.18;92.57
34482;BME280;20720;48.886;9.388;2023-12-20T12:30:15;98623.22;;;9.02;93.49
34482;BME280;20720;48.886;9.388;2023-12-20T12:32:43;98612.78;;;8.87;94.65
34482;BME280;20720;48.886;9.388;2023-12-20T12:35:09;98614.47;;;9.09;92.94
34482;BME280;20720;48.886;9.388;2023-12-20T12:37:37;98611.31;;;8.99;93.42
34482;BME280;20720;48.886;9.388;2023-12-20T12:40:24;98622.34;;;9.81;90.78
34482;BME280;20720;48.886;9.388;2023-12-20T12:42:49;98614.63;;;9.22;91.94
34482;BME280;20720;48.886;9.388;2023-12-20T12:45:14;98610.25;;;9.44;90.18
34482;BME280;20720;48.886;9.388;2023-12-20T12:47:40;98616.47;;;9.43;90.84
34482;BME280;20720;48.886;9.388;2023-12-20T12:50:06;98604.84;;;9.31;91.81
34482;BME280;20720;48.886;9.388;2023-12-20T12:52:32;98613.56;;;8.59;94.72
34482;BME280;20720;48.886;9.388;2023-12-20T12:54:57;98609.81;;;9.26;92.23